Terminal Aerodrome Forecast
Issued by NWS

Home | Current Version | Previous Version | Text Only | Print | Product List | Glossary On
Versions: 1 2 3 4 5 6 7 8 9 10 11 12 13 14 15
000
FTUS42 KTAE 190500
TAFECP
TAF
KECP 190525Z 1906/2006 33008G16KT 6SM -DZ OVC016
      TEMPO 1906/1910 5SM -DZ BR OVC007
     FM191000 35008KT P6SM OVC007
     FM191600 36012KT P6SM BKN015=

USA.gov is the U.S. government's official web portal to all federal, state and local government web resources and services.